sensor_id;sensor_type;location;lat;lon;timestamp;temperature;humidity
11229;DHT22;5671;47.936;8.716;2023-04-03T00:02:02;3.10;87.20
11229;DHT22;5671;47.936;8.716;2023-04-03T00:04:29;3.10;87.60
11229;DHT22;5671;47.936;8.716;2023-04-03T00:06:56;3.10;87.90
11229;DHT22;5671;47.936;8.716;2023-04-03T00:09:22;3.10;87.70
11229;DHT22;5671;47.936;8.716;2023-04-03T00:11:50;3.10;88.00
11229;DHT22;5671;47.936;8.716;2023-04-03T00:14:16;3.10;87.70
11229;DHT22;5671;47.936;8.716;2023-04-03T00:16:43;3.00;86.60
11229;DHT22;5671;47.936;8.716;2023-04-03T00:19:11;3.00;87.10
11229;DHT22;5671;47.936;8.716;2023-04-03T00:21:38;2.90;86.90
11229;DHT22;5671;47.936;8.716;2023-04-03T00:24:06;2.90;87.50
11229;DHT22;5671;47.936;8.716;2023-04-03T00:26:33;2.80;87.60
11229;DHT22;5671;47.936;8.716;2023-04-03T00:29:00;2.80;87.30
11229;DHT22;5671;47.936;8.716;2023-04-03T00:31:27;2.80;87.70
11229;DHT22;5671;47.936;8.716;2023-04-03T00:33:53;2.80;87.80
11229;DHT22;5671;47.936;8.716;2023-04-03T00:36:21;2.70;87.60
11229;DHT22;5671;47.936;8.716;2023-04-03T00:38:48;2.70;87.60
11229;DHT22;5671;47.936;8.716;2023-04-03T00:41:15;2.70;87.60
11229;DHT22;5671;47.936;8.716;2023-04-03T00:43:42;2.70;87.80
11229;DHT22;5671;47.936;8.716;2023-04-03T00:46:09;2.70;87.90
11229;DHT22;5671;47.936;8.716;2023-04-03T00:48:38;2.60;88.00
11229;DHT22;5671;47.936;8.716;2023-04-03T00:51:09;2.60;88.10
11229;DHT22;5671;47.936;8.716;2023-04-03T00:53:41;2.60;87.50
11229;DHT22;5671;47.936;8.716;2023-04-03T00:56:13;2.60;87.60
11229;DHT22;5671;47.936;8.716;2023-04-03T00:58:44;2.60;87.20
11229;DHT22;5671;47.936;8.716;2023-04-03T01:01:16;2.50;87.20
11229;DHT22;5671;47.936;8.716;2023-04-03T01:03:45;2.50;87.30
11229;DHT22;5671;47.936;8.716;2023-04-03T01:06:13;2.50;87.10
11229;DHT22;5671;47.936;8.716;2023-04-03T01:08:43;2.50;87.20
11229;DHT22;5671;47.936;8.716;2023-04-03T01:11:12;2.50;86.40
11229;DHT22;5671;47.936;8.716;2023-04-03T01:13:39;2.50;86.70
11229;DHT22;5671;47.936;8.716;2023-04-03T01:16:07;2.50;86.70
11229;DHT22;5671;47.936;8.716;2023-04-03T01:18:35;2.40;86.30
11229;DHT22;5671;47.936;8.716;2023-04-03T01:24:27;2.40;86.70
11229;DHT22;5671;47.936;8.716;2023-04-03T01:26:57;2.40;86.40
11229;DHT22;5671;47.936;8.716;2023-04-03T01:29:24;2.40;86.60
11229;DHT22;5671;47.936;8.716;2023-04-03T01:31:54;2.50;86.80
11229;DHT22;5671;47.936;8.716;2023-04-03T01:34:22;2.30;86.90
11229;DHT22;5671;47.936;8.716;2023-04-03T01:36:49;2.30;87.00
11229;DHT22;5671;47.936;8.716;2023-04-03T01:39:16;2.50;87.00
11229;DHT22;5671;47.936;8.716;2023-04-03T01:41:42;2.20;86.80
11229;DHT22;5671;47.936;8.716;2023-04-03T01:44:10;2.20;86.70
11229;DHT22;5671;47.936;8.716;2023-04-03T01:46:37;2.40;86.30
11229;DHT22;5671;47.936;8.716;2023-04-03T01:49:05;2.60;85.10
11229;DHT22;5671;47.936;8.716;2023-04-03T01:51:32;2.10;86.10
11229;DHT22;5671;47.936;8.716;2023-04-03T01:56:26;2.50;85.50
11229;DHT22;5671;47.936;8.716;2023-04-03T02:01:20;2.50;84.90
11229;DHT22;5671;47.936;8.716;2023-04-03T02:03:47;2.10;86.10
11229;DHT22;5671;47.936;8.716;2023-04-03T02:06:15;2.50;84.70
11229;DHT22;5671;47.936;8.716;2023-04-03T02:08:42;2.00;85.70
11229;DHT22;5671;47.936;8.716;2023-04-03T02:11:09;2.00;85.50
11229;DHT22;5671;47.936;8.716;2023-04-03T02:13:36;2.30;83.20
11229;DHT22;5671;47.936;8.716;2023-04-03T02:16:07;2.40;83.10
11229;DHT22;5671;47.936;8.716;2023-04-03T02:18:35;1.90;84.20
11229;DHT22;5671;47.936;8.716;2023-04-03T02:21:02;1.80;84.80
11229;DHT22;5671;47.936;8.716;2023-04-03T02:23:30;1.80;84.90
11229;DHT22;5671;47.936;8.716;2023-04-03T02:26:07;2.10;83.40
11229;DHT22;5671;47.936;8.716;2023-04-03T02:28:34;1.80;84.60
11229;DHT22;5671;47.936;8.716;2023-04-03T02:31:01;1.70;84.50
11229;DHT22;5671;47.936;8.716;2023-04-03T02:33:28;2.20;82.70
11229;DHT22;5671;47.936;8.716;2023-04-03T02:35:56;1.80;84.00
11229;DHT22;5671;47.936;8.716;2023-04-03T02:38:24;2.10;83.20
11229;DHT22;5671;47.936;8.716;2023-04-03T02:40:52;1.90;84.00
11229;DHT22;5671;47.936;8.716;2023-04-03T02:43:19;1.60;84.30
11229;DHT22;5671;47.936;8.716;2023-04-03T02:45:45;1.50;84.60
11229;DHT22;5671;47.936;8.716;2023-04-03T02:48:12;2.10;83.60
11229;DHT22;5671;47.936;8.716;2023-04-03T02:50:40;2.10;83.10
11229;DHT22;5671;47.936;8.716;2023-04-03T02:53:07;1.60;84.40
11229;DHT22;5671;47.936;8.716;2023-04-03T02:55:34;1.50;85.00
11229;DHT22;5671;47.936;8.716;2023-04-03T02:58:02;2.00;83.70
11229;DHT22;5671;47.936;8.716;2023-04-03T03:00:29;2.10;83.50
11229;DHT22;5671;47.936;8.716;2023-04-03T03:02:56;1.70;84.80
11229;DHT22;5671;47.936;8.716;2023-04-03T03:05:23;1.50;85.00
11229;DHT22;5671;47.936;8.716;2023-04-03T03:07:50;1.70;84.70
11229;DHT22;5671;47.936;8.716;2023-04-03T03:10:16;1.60;84.60
11229;DHT22;5671;47.936;8.716;2023-04-03T03:12:43;1.40;84.70
11229;DHT22;5671;47.936;8.716;2023-04-03T03:15:12;1.30;84.60
11229;DHT22;5671;47.936;8.716;2023-04-03T03:17:39;1.80;83.00
11229;DHT22;5671;47.936;8.716;2023-04-03T03:22:34;1.80;82.20
11229;DHT22;5671;47.936;8.716;2023-04-03T03:25:01;1.50;83.50
11229;DHT22;5671;47.936;8.716;2023-04-03T03:27:28;1.20;83.80
11229;DHT22;5671;47.936;8.716;2023-04-03T03:29:55;1.10;84.20
11229;DHT22;5671;47.936;8.716;2023-04-03T03:32:23;1.40;84.00
11229;DHT22;5671;47.936;8.716;2023-04-03T03:34:50;1.10;84.20
11229;DHT22;5671;47.936;8.716;2023-04-03T03:37:17;1.00;84.30
11229;DHT22;5671;47.936;8.716;2023-04-03T03:39:44;1.30;84.00
11229;DHT22;5671;47.936;8.716;2023-04-03T03:42:11;1.30;84.50
11229;DHT22;5671;47.936;8.716;2023-04-03T03:44:37;1.20;84.20
11229;DHT22;5671;47.936;8.716;2023-04-03T03:47:04;0.90;84.90
11229;DHT22;5671;47.936;8.716;2023-04-03T03:49:33;1.20;83.90
11229;DHT22;5671;47.936;8.716;2023-04-03T03:52:00;1.10;84.60
11229;DHT22;5671;47.936;8.716;2023-04-03T03:54:27;1.10;84.80
11229;DHT22;5671;47.936;8.716;2023-04-03T03:57:01;0.80;85.00
11229;DHT22;5671;47.936;8.716;2023-04-03T03:59:28;0.80;84.80
11229;DHT22;5671;47.936;8.716;2023-04-03T04:01:55;1.20;83.70
11229;DHT22;5671;47.936;8.716;2023-04-03T04:04:22;1.10;84.10
11229;DHT22;5671;47.936;8.716;2023-04-03T04:06:50;1.20;83.70
11229;DHT22;5671;47.936;8.716;2023-04-03T04:09:17;1.00;84.80
11229;DHT22;5671;47.936;8.716;2023-04-03T04:11:44;1.20;83.70
11229;DHT22;5671;47.936;8.716;2023-04-03T04:14:11;0.80;84.60
11229;DHT22;5671;47.936;8.716;2023-04-03T04:16:38;0.80;84.90
11229;DHT22;5671;47.936;8.716;2023-04-03T04:19:05;1.10;83.80
11229;DHT22;5671;47.936;8.716;2023-04-03T04:21:32;1.20;83.10
11229;DHT22;5671;47.936;8.716;2023-04-03T04:24:00;1.00;84.00
11229;DHT22;5671;47.936;8.716;2023-04-03T04:26:27;0.90;83.90
11229;DHT22;5671;47.936;8.716;2023-04-03T04:28:54;1.00;83.60
11229;DHT22;5671;47.936;8.716;2023-04-03T04:31:21;0.90;83.60
11229;DHT22;5671;47.936;8.716;2023-04-03T04:33:48;1.00;82.80
11229;DHT22;5671;47.936;8.716;2023-04-03T04:36:14;0.90;83.10
11229;DHT22;5671;47.936;8.716;2023-04-03T04:38:41;0.90;82.90
11229;DHT22;5671;47.936;8.716;2023-04-03T04:41:10;1.00;82.10
11229;DHT22;5671;47.936;8.716;2023-04-03T04:43:37;1.00;82.00
11229;DHT22;5671;47.936;8.716;2023-04-03T04:46:05;1.00;81.40
11229;DHT22;5671;47.936;8.716;2023-04-03T04:48:32;0.80;82.10
11229;DHT22;5671;47.936;8.716;2023-04-03T04:50:59;0.60;81.90
11229;DHT22;5671;47.936;8.716;2023-04-03T04:53:26;1.00;80.40
11229;DHT22;5671;47.936;8.716;2023-04-03T04:55:53;0.90;79.70
11229;DHT22;5671;47.936;8.716;2023-04-03T04:58:21;0.80;81.20
11229;DHT22;5671;47.936;8.716;2023-04-03T05:00:48;0.80;81.40
11229;DHT22;5671;47.936;8.716;2023-04-03T05:03:15;0.70;81.50
11229;DHT22;5671;47.936;8.716;2023-04-03T05:05:42;0.80;80.60
11229;DHT22;5671;47.936;8.716;2023-04-03T05:08:09;0.40;81.10
11229;DHT22;5671;47.936;8.716;2023-04-03T05:10:36;0.50;81.00
11229;DHT22;5671;47.936;8.716;2023-04-03T05:13:03;0.50;81.80
11229;DHT22;5671;47.936;8.716;2023-04-03T05:15:31;0.70;79.70
11229;DHT22;5671;47.936;8.716;2023-04-03T05:17:58;0.60;81.30
11229;DHT22;5671;47.936;8.716;2023-04-03T05:20:25;0.30;80.90
11229;DHT22;5671;47.936;8.716;2023-04-03T05:22:51;0.80;80.20
11229;DHT22;5671;47.936;8.716;2023-04-03T05:25:18;0.80;79.20
11229;DHT22;5671;47.936;8.716;2023-04-03T05:27:45;0.80;79.00
11229;DHT22;5671;47.936;8.716;2023-04-03T05:30:13;0.50;80.30
11229;DHT22;5671;47.936;8.716;2023-04-03T05:32:41;0.40;80.50
11229;DHT22;5671;47.936;8.716;2023-04-03T05:35:08;0.30;79.10
11229;DHT22;5671;47.936;8.716;2023-04-03T05:37:35;0.30;79.70
11229;DHT22;5671;47.936;8.716;2023-04-03T05:40:04;0.50;78.80
11229;DHT22;5671;47.936;8.716;2023-04-03T05:42:31;0.20;78.00
11229;DHT22;5671;47.936;8.716;2023-04-03T05:44:58;0.20;78.30
11229;DHT22;5671;47.936;8.716;2023-04-03T05:47:28;0.40;78.00
11229;DHT22;5671;47.936;8.716;2023-04-03T05:49:56;0.40;77.00
11229;DHT22;5671;47.936;8.716;2023-04-03T05:52:26;0.10;75.90
11229;DHT22;5671;47.936;8.716;2023-04-03T05:54:53;0.10;75.40
11229;DHT22;5671;47.936;8.716;2023-04-03T05:57:20;0.40;75.10
11229;DHT22;5671;47.936;8.716;2023-04-03T05:59:47;0.10;74.60
11229;DHT22;5671;47.936;8.716;2023-04-03T06:02:16;0.10;75.10
11229;DHT22;5671;47.936;8.716;2023-04-03T06:04:44;0.30;75.60
11229;DHT22;5671;47.936;8.716;2023-04-03T06:07:14;0.20;75.60
11229;DHT22;5671;47.936;8.716;2023-04-03T06:09:41;0.10;76.20
11229;DHT22;5671;47.936;8.716;2023-04-03T06:12:09;0.30;75.80
11229;DHT22;5671;47.936;8.716;2023-04-03T06:14:36;0.20;75.40
11229;DHT22;5671;47.936;8.716;2023-04-03T06:17:03;0.00;75.90
11229;DHT22;5671;47.936;8.716;2023-04-03T06:19:31;0.00;75.80
11229;DHT22;5671;47.936;8.716;2023-04-03T06:21:58;0.30;74.80
11229;DHT22;5671;47.936;8.716;2023-04-03T06:24:27;0.20;75.00
11229;DHT22;5671;47.936;8.716;2023-04-03T06:26:54;0.00;74.80
11229;DHT22;5671;47.936;8.716;2023-04-03T06:29:21;0.20;75.30
11229;DHT22;5671;47.936;8.716;2023-04-03T06:31:48;0.10;74.80
11229;DHT22;5671;47.936;8.716;2023-04-03T06:34:15;0.30;74.30
11229;DHT22;5671;47.936;8.716;2023-04-03T06:36:44;0.00;75.00
11229;DHT22;5671;47.936;8.716;2023-04-03T06:39:14;0.20;74.60
11229;DHT22;5671;47.936;8.716;2023-04-03T06:41:42;0.10;74.40
11229;DHT22;5671;47.936;8.716;2023-04-03T06:44:10;0.20;74.40
11229;DHT22;5671;47.936;8.716;2023-04-03T06:46:39;0.30;74.70
11229;DHT22;5671;47.936;8.716;2023-04-03T06:49:05;0.00;74.20
11229;DHT22;5671;47.936;8.716;2023-04-03T06:51:34;0.20;74.80
11229;DHT22;5671;47.936;8.716;2023-04-03T06:54:02;0.30;73.90
11229;DHT22;5671;47.936;8.716;2023-04-03T06:56:30;0.30;74.50
11229;DHT22;5671;47.936;8.716;2023-04-03T06:58:58;0.20;74.90
11229;DHT22;5671;47.936;8.716;2023-04-03T07:01:26;0.20;75.40
11229;DHT22;5671;47.936;8.716;2023-04-03T07:03:54;0.30;76.20
11229;DHT22;5671;47.936;8.716;2023-04-03T07:06:21;0.30;76.50
11229;DHT22;5671;47.936;8.716;2023-04-03T07:08:48;0.60;75.20
11229;DHT22;5671;47.936;8.716;2023-04-03T07:11:16;0.20;75.80
11229;DHT22;5671;47.936;8.716;2023-04-03T07:13:43;0.60;74.20
11229;DHT22;5671;47.936;8.716;2023-04-03T07:16:11;0.60;74.20
11229;DHT22;5671;47.936;8.716;2023-04-03T07:18:38;0.60;75.70
11229;DHT22;5671;47.936;8.716;2023-04-03T07:21:05;0.80;74.50
11229;DHT22;5671;47.936;8.716;2023-04-03T07:23:32;0.50;76.10
11229;DHT22;5671;47.936;8.716;2023-04-03T07:25:59;0.60;75.80
11229;DHT22;5671;47.936;8.716;2023-04-03T07:28:26;0.80;73.80
11229;DHT22;5671;47.936;8.716;2023-04-03T07:31:00;1.10;73.70
11229;DHT22;5671;47.936;8.716;2023-04-03T07:33:28;0.90;74.00
11229;DHT22;5671;47.936;8.716;2023-04-03T07:35:56;0.80;73.40
11229;DHT22;5671;47.936;8.716;2023-04-03T07:38:24;0.90;72.50
11229;DHT22;5671;47.936;8.716;2023-04-03T07:40:51;1.20;71.50
11229;DHT22;5671;47.936;8.716;2023-04-03T07:43:20;1.10;71.20
11229;DHT22;5671;47.936;8.716;2023-04-03T07:45:47;1.00;71.90
11229;DHT22;5671;47.936;8.716;2023-04-03T07:48:17;1.10;72.40
11229;DHT22;5671;47.936;8.716;2023-04-03T07:50:45;1.60;70.80
11229;DHT22;5671;47.936;8.716;2023-04-03T07:53:12;1.30;71.10
11229;DHT22;5671;47.936;8.716;2023-04-03T07:55:39;1.90;68.70
11229;DHT22;5671;47.936;8.716;2023-04-03T07:58:09;1.40;70.00
11229;DHT22;5671;47.936;8.716;2023-04-03T08:00:36;2.00;68.80
11229;DHT22;5671;47.936;8.716;2023-04-03T08:03:03;1.60;68.70
11229;DHT22;5671;47.936;8.716;2023-04-03T08:05:37;1.60;69.10
11229;DHT22;5671;47.936;8.716;2023-04-03T08:08:06;1.50;69.10
11229;DHT22;5671;47.936;8.716;2023-04-03T08:10:33;1.80;68.30
11229;DHT22;5671;47.936;8.716;2023-04-03T08:13:00;1.90;67.40
11229;DHT22;5671;47.936;8.716;2023-04-03T08:15:27;1.60;69.30
11229;DHT22;5671;47.936;8.716;2023-04-03T08:17:54;1.80;67.90
11229;DHT22;5671;47.936;8.716;2023-04-03T08:20:22;1.90;68.90
11229;DHT22;5671;47.936;8.716;2023-04-03T08:22:49;1.70;68.80
11229;DHT22;5671;47.936;8.716;2023-04-03T08:25:17;2.10;68.50
11229;DHT22;5671;47.936;8.716;2023-04-03T08:27:44;1.80;69.20
11229;DHT22;5671;47.936;8.716;2023-04-03T08:30:12;2.10;68.60
11229;DHT22;5671;47.936;8.716;2023-04-03T08:32:39;1.80;68.00
11229;DHT22;5671;47.936;8.716;2023-04-03T08:35:07;2.30;67.20
11229;DHT22;5671;47.936;8.716;2023-04-03T08:37:35;1.90;69.10
11229;DHT22;5671;47.936;8.716;2023-04-03T08:40:03;1.90;68.80
11229;DHT22;5671;47.936;8.716;2023-04-03T08:42:39;1.90;69.50
11229;DHT22;5671;47.936;8.716;2023-04-03T08:45:10;2.60;67.50
11229;DHT22;5671;47.936;8.716;2023-04-03T08:47:42;2.10;67.90
11229;DHT22;5671;47.936;8.716;2023-04-03T08:50:13;2.40;68.40
11229;DHT22;5671;47.936;8.716;2023-04-03T08:52:44;2.60;66.80
11229;DHT22;5671;47.936;8.716;2023-04-03T08:55:19;2.70;67.10
11229;DHT22;5671;47.936;8.716;2023-04-03T08:57:50;2.80;66.60
11229;DHT22;5671;47.936;8.716;2023-04-03T09:00:19;2.30;67.50
11229;DHT22;5671;47.936;8.716;2023-04-03T09:02:48;2.30;68.10
11229;DHT22;5671;47.936;8.716;2023-04-03T09:05:16;2.50;68.10
11229;DHT22;5671;47.936;8.716;2023-04-03T09:07:46;2.30;68.30
11229;DHT22;5671;47.936;8.716;2023-04-03T09:10:15;2.80;65.40
11229;DHT22;5671;47.936;8.716;2023-04-03T09:12:52;2.30;67.00
11229;DHT22;5671;47.936;8.716;2023-04-03T09:15:21;2.20;67.40
11229;DHT22;5671;47.936;8.716;2023-04-03T09:17:57;3.00;68.10
11229;DHT22;5671;47.936;8.716;2023-04-03T09:20:32;2.80;67.20
11229;DHT22;5671;47.936;8.716;2023-04-03T09:23:09;3.20;67.20
11229;DHT22;5671;47.936;8.716;2023-04-03T09:25:39;2.90;68.40
11229;DHT22;5671;47.936;8.716;2023-04-03T09:28:08;3.20;67.80
11229;DHT22;5671;47.936;8.716;2023-04-03T09:30:35;3.20;66.00
11229;DHT22;5671;47.936;8.716;2023-04-03T09:33:02;3.80;66.00
11229;DHT22;5671;47.936;8.716;2023-04-03T09:35:31;3.40;66.70
11229;DHT22;5671;47.936;8.716;2023-04-03T09:37:59;3.70;66.80
11229;DHT22;5671;47.936;8.716;2023-04-03T09:40:35;3.50;66.10
11229;DHT22;5671;47.936;8.716;2023-04-03T09:43:21;4.10;63.10
11229;DHT22;5671;47.936;8.716;2023-04-03T09:45:49;3.60;64.60
11229;DHT22;5671;47.936;8.716;2023-04-03T09:48:20;3.60;64.00
11229;DHT22;5671;47.936;8.716;2023-04-03T09:51:00;3.50;65.10
11229;DHT22;5671;47.936;8.716;2023-04-03T09:53:34;3.60;64.40
11229;DHT22;5671;47.936;8.716;2023-04-03T09:56:04;3.70;65.90
11229;DHT22;5671;47.936;8.716;2023-04-03T09:58:37;3.70;64.20
11229;DHT22;5671;47.936;8.716;2023-04-03T10:01:06;3.80;64.20
11229;DHT22;5671;47.936;8.716;2023-04-03T10:03:35;3.80;64.50
11229;DHT22;5671;47.936;8.716;2023-04-03T10:06:03;4.40;63.10
11229;DHT22;5671;47.936;8.716;2023-04-03T10:08:34;3.90;63.40
11229;DHT22;5671;47.936;8.716;2023-04-03T10:11:13;4.30;62.70
11229;DHT22;5671;47.936;8.716;2023-04-03T10:13:55;3.90;64.60
11229;DHT22;5671;47.936;8.716;2023-04-03T10:16:27;3.90;64.60
11229;DHT22;5671;47.936;8.716;2023-04-03T10:19:17;3.80;64.60
11229;DHT22;5671;47.936;8.716;2023-04-03T10:21:53;3.80;64.30
11229;DHT22;5671;47.936;8.716;2023-04-03T10:24:27;3.80;64.30
11229;DHT22;5671;47.936;8.716;2023-04-03T10:26:58;3.70;63.40
11229;DHT22;5671;47.936;8.716;2023-04-03T10:29:47;3.70;64.10
11229;DHT22;5671;47.936;8.716;2023-04-03T10:32:35;3.90;64.70
11229;DHT22;5671;47.936;8.716;2023-04-03T10:35:12;3.50;65.30
11229;DHT22;5671;47.936;8.716;2023-04-03T10:37:51;3.50;65.80
11229;DHT22;5671;47.936;8.716;2023-04-03T10:40:30;3.50;65.90
11229;DHT22;5671;47.936;8.716;2023-04-03T10:43:02;3.50;66.30
11229;DHT22;5671;47.936;8.716;2023-04-03T10:45:44;3.50;65.50
11229;DHT22;5671;47.936;8.716;2023-04-03T10:48:17;3.60;64.50
11229;DHT22;5671;47.936;8.716;2023-04-03T10:50:52;4.10;62.70
11229;DHT22;5671;47.936;8.716;2023-04-03T10:53:29;3.90;63.10
11229;DHT22;5671;47.936;8.716;2023-04-03T10:56:03;3.60;64.10
11229;DHT22;5671;47.936;8.716;2023-04-03T10:58:34;3.50;64.70
11229;DHT22;5671;47.936;8.716;2023-04-03T11:01:08;3.60;64.40
11229;DHT22;5671;47.936;8.716;2023-04-03T11:03:36;3.90;63.80
11229;DHT22;5671;47.936;8.716;2023-04-03T11:06:09;3.50;65.20
11229;DHT22;5671;47.936;8.716;2023-04-03T11:08:39;3.90;64.80
11229;DHT22;5671;47.936;8.716;2023-04-03T11:11:13;3.90;65.00
11229;DHT22;5671;47.936;8.716;2023-04-03T11:13:44;3.50;65.60
11229;DHT22;5671;47.936;8.716;2023-04-03T11:16:17;3.40;65.50
11229;DHT22;5671;47.936;8.716;2023-04-03T11:18:49;3.60;66.30
11229;DHT22;5671;47.936;8.716;2023-04-03T11:21:20;4.00;64.20
11229;DHT22;5671;47.936;8.716;2023-04-03T11:23:48;4.00;64.90
11229;DHT22;5671;47.936;8.716;2023-04-03T11:26:18;3.90;64.20
11229;DHT22;5671;47.936;8.716;2023-04-03T11:28:46;3.70;65.20
11229;DHT22;5671;47.936;8.716;2023-04-03T11:31:37;4.00;64.30
11229;DHT22;5671;47.936;8.716;2023-04-03T11:34:16;3.60;64.70
11229;DHT22;5671;47.936;8.716;2023-04-03T11:36:47;3.50;64.10
11229;DHT22;5671;47.936;8.716;2023-04-03T11:39:20;3.50;62.40
11229;DHT22;5671;47.936;8.716;2023-04-03T11:41:49;3.50;62.40
11229;DHT22;5671;47.936;8.716;2023-04-03T11:44:32;3.50;64.50
11229;DHT22;5671;47.936;8.716;2023-04-03T11:47:09;4.00;62.40
11229;DHT22;5671;47.936;8.716;2023-04-03T11:49:55;3.70;62.70
11229;DHT22;5671;47.936;8.716;2023-04-03T11:53:01;3.50;63.60
11229;DHT22;5671;47.936;8.716;2023-04-03T11:55:54;3.50;63.40
11229;DHT22;5671;47.936;8.716;2023-04-03T11:58:22;3.60;62.70
11229;DHT22;5671;47.936;8.716;2023-04-03T12:00:54;3.60;61.60
11229;DHT22;5671;47.936;8.716;2023-04-03T12:10:19;4.00;61.10
11229;DHT22;5671;47.936;8.716;2023-04-03T12:12:57;4.20;59.30
11229;DHT22;5671;47.936;8.716;2023-04-03T12:15:52;4.30;58.40
11229;DHT22;5671;47.936;8.716;2023-04-03T12:18:53;4.40;58.20
11229;DHT22;5671;47.936;8.716;2023-04-03T12:21:22;4.40;58.10
11229;DHT22;5671;47.936;8.716;2023-04-03T12:23:59;4.40;56.80
11229;DHT22;5671;47.936;8.716;2023-04-03T12:26:31;4.50;57.30
11229;DHT22;5671;47.936;8.716;2023-04-03T12:29:01;4.30;57.60
11229;DHT22;5671;47.936;8.716;2023-04-03T12:31:42;4.30;56.60
11229;DHT22;5671;47.936;8.716;2023-04-03T12:34:21;4.50;59.10
11229;DHT22;5671;47.936;8.716;2023-04-03T12:36:59;4.20;58.40
11229;DHT22;5671;47.936;8.716;2023-04-03T12:39:53;4.20;57.00
11229;DHT22;5671;47.936;8.716;2023-04-03T12:42:37;4.20;57.10
11229;DHT22;5671;47.936;8.716;2023-04-03T12:45:16;4.20;57.80
11229;DHT22;5671;47.936;8.716;2023-04-03T12:47:45;4.30;57.90
11229;DHT22;5671;47.936;8.716;2023-04-03T12:50:22;4.50;57.70
11229;DHT22;5671;47.936;8.716;2023-04-03T12:52:54;4.20;57.60
11229;DHT22;5671;47.936;8.716;2023-04-03T12:55:23;4.20;58.20
11229;DHT22;5671;47.936;8.716;2023-04-03T12:57:51;4.30;58.30
11229;DHT22;5671;47.936;8.716;2023-04-03T13:00:33;4.80;56.50
11229;DHT22;5671;47.936;8.716;2023-04-03T13:03:01;4.30;57.90
11229;DHT22;5671;47.936;8.716;2023-04-03T13:05:30;4.30;58.30
11229;DHT22;5671;47.936;8.716;2023-04-03T13:08:00;4.40;58.40
11229;DHT22;5671;47.936;8.716;2023-04-03T13:10:28;4.20;57.20
11229;DHT22;5671;47.936;8.716;2023-04-03T13:13:06;4.30;57.20
11229;DHT22;5671;47.936;8.716;2023-04-03T13:15:41;4.10;57.60
11229;DHT22;5671;47.936;8.716;2023-04-03T13:18:22;4.10;58.50
11229;DHT22;5671;47.936;8.716;2023-04-03T13:20:49;4.10;57.90
11229;DHT22;5671;47.936;8.716;2023-04-03T13:23:17;4.00;57.30
11229;DHT22;5671;47.936;8.716;2023-04-03T13:25:48;3.80;57.60
11229;DHT22;5671;47.936;8.716;2023-04-03T13:28:20;3.80;57.00
11229;DHT22;5671;47.936;8.716;2023-04-03T13:30:59;4.20;57.00
11229;DHT22;5671;47.936;8.716;2023-04-03T13:33:30;3.80;58.10
11229;DHT22;5671;47.936;8.716;2023-04-03T13:36:02;3.70;58.50
11229;DHT22;5671;47.936;8.716;2023-04-03T13:38:30;3.70;58.10
11229;DHT22;5671;47.936;8.716;2023-04-03T13:41:03;3.90;59.00
11229;DHT22;5671;47.936;8.716;2023-04-03T13:43:33;3.90;58.40
11229;DHT22;5671;47.936;8.716;2023-04-03T13:46:05;3.70;58.40
11229;DHT22;5671;47.936;8.716;2023-04-03T13:48:38;3.70;57.60
11229;DHT22;5671;47.936;8.716;2023-04-03T13:51:16;4.10;56.80
11229;DHT22;5671;47.936;8.716;2023-04-03T13:53:45;3.70;57.70
11229;DHT22;5671;47.936;8.716;2023-04-03T13:56:19;3.60;58.10
11229;DHT22;5671;47.936;8.716;2023-04-03T13:59:02;3.50;56.90
11229;DHT22;5671;47.936;8.716;2023-04-03T14:01:41;3.40;57.00
11229;DHT22;5671;47.936;8.716;2023-04-03T14:04:15;3.40;58.40
11229;DHT22;5671;47.936;8.716;2023-04-03T14:06:44;3.30;58.20
11229;DHT22;5671;47.936;8.716;2023-04-03T14:09:12;3.30;58.70
11229;DHT22;5671;47.936;8.716;2023-04-03T14:11:40;3.30;59.60
11229;DHT22;5671;47.936;8.716;2023-04-03T14:14:13;3.30;58.40
11229;DHT22;5671;47.936;8.716;2023-04-03T14:16:45;3.30;58.30
11229;DHT22;5671;47.936;8.716;2023-04-03T14:19:18;3.30;58.90
11229;DHT22;5671;47.936;8.716;2023-04-03T14:21:46;3.30;57.80
11229;DHT22;5671;47.936;8.716;2023-04-03T14:24:13;3.20;58.30
11229;DHT22;5671;47.936;8.716;2023-04-03T14:26:40;3.30;59.00
11229;DHT22;5671;47.936;8.716;2023-04-03T14:29:11;3.20;58.60
11229;DHT22;5671;47.936;8.716;2023-04-03T14:31:39;3.20;58.30
11229;DHT22;5671;47.936;8.716;2023-04-03T14:34:07;3.10;57.80
11229;DHT22;5671;47.936;8.716;2023-04-03T14:36:34;3.10;57.50
11229;DHT22;5671;47.936;8.716;2023-04-03T14:39:01;3.40;57.60
11229;DHT22;5671;47.936;8.716;2023-04-03T14:41:28;3.70;57.30
11229;DHT22;5671;47.936;8.716;2023-04-03T14:43:55;3.70;57.40
11229;DHT22;5671;47.936;8.716;2023-04-03T14:46:25;3.80;56.80
11229;DHT22;5671;47.936;8.716;2023-04-03T14:48:53;3.30;57.40
11229;DHT22;5671;47.936;8.716;2023-04-03T14:51:20;3.30;58.50
11229;DHT22;5671;47.936;8.716;2023-04-03T14:53:47;3.20;58.80
11229;DHT22;5671;47.936;8.716;2023-04-03T14:56:18;3.60;58.70
11229;DHT22;5671;47.936;8.716;2023-04-03T14:58:47;3.40;59.40
11229;DHT22;5671;47.936;8.716;2023-04-03T15:01:16;3.20;59.20
11229;DHT22;5671;47.936;8.716;2023-04-03T15:03:44;3.20;58.70
11229;DHT22;5671;47.936;8.716;2023-04-03T15:06:13;3.70;57.10
11229;DHT22;5671;47.936;8.716;2023-04-03T15:08:41;3.70;56.60
11229;DHT22;5671;47.936;8.716;2023-04-03T15:11:08;3.40;57.10
11229;DHT22;5671;47.936;8.716;2023-04-03T15:13:35;3.80;55.80
11229;DHT22;5671;47.936;8.716;2023-04-03T15:16:02;3.30;55.70
11229;DHT22;5671;47.936;8.716;2023-04-03T15:18:35;3.80;54.30
11229;DHT22;5671;47.936;8.716;2023-04-03T15:21:04;3.30;55.00
11229;DHT22;5671;47.936;8.716;2023-04-03T15:23:31;3.20;56.30
11229;DHT22;5671;47.936;8.716;2023-04-03T15:25:58;3.30;55.60
11229;DHT22;5671;47.936;8.716;2023-04-03T15:28:30;3.30;55.60
11229;DHT22;5671;47.936;8.716;2023-04-03T15:30:58;3.30;55.40
11229;DHT22;5671;47.936;8.716;2023-04-03T15:33:26;3.80;55.40
11229;DHT22;5671;47.936;8.716;2023-04-03T15:35:53;3.40;55.50
11229;DHT22;5671;47.936;8.716;2023-04-03T15:38:22;3.30;55.80
11229;DHT22;5671;47.936;8.716;2023-04-03T15:40:49;3.60;55.70
11229;DHT22;5671;47.936;8.716;2023-04-03T15:43:15;3.50;56.70
11229;DHT22;5671;47.936;8.716;2023-04-03T15:45:43;3.70;55.80
11229;DHT22;5671;47.936;8.716;2023-04-03T15:48:11;3.70;56.00
11229;DHT22;5671;47.936;8.716;2023-04-03T15:50:39;3.30;56.70
11229;DHT22;5671;47.936;8.716;2023-04-03T15:53:06;3.10;56.60
11229;DHT22;5671;47.936;8.716;2023-04-03T15:55:37;3.50;54.90
11229;DHT22;5671;47.936;8.716;2023-04-03T15:58:04;3.20;55.70
11229;DHT22;5671;47.936;8.716;2023-04-03T16:00:31;3.30;57.20
11229;DHT22;5671;47.936;8.716;2023-04-03T16:03:00;3.60;56.20
11229;DHT22;5671;47.936;8.716;2023-04-03T16:05:29;3.20;55.40
11229;DHT22;5671;47.936;8.716;2023-04-03T16:07:57;3.50;55.00
11229;DHT22;5671;47.936;8.716;2023-04-03T16:10:26;3.40;55.80
11229;DHT22;5671;47.936;8.716;2023-04-03T16:12:55;3.20;54.90
11229;DHT22;5671;47.936;8.716;2023-04-03T16:15:22;3.20;55.50
11229;DHT22;5671;47.936;8.716;2023-04-03T16:17:50;3.10;56.20
11229;DHT22;5671;47.936;8.716;2023-04-03T16:20:17;3.10;56.20
11229;DHT22;5671;47.936;8.716;2023-04-03T16:22:45;3.10;56.70
11229;DHT22;5671;47.936;8.716;2023-04-03T16:25:12;3.50;56.70
11229;DHT22;5671;47.936;8.716;2023-04-03T16:27:39;3.10;57.70
11229;DHT22;5671;47.936;8.716;2023-04-03T16:30:08;3.00;55.00
11229;DHT22;5671;47.936;8.716;2023-04-03T16:32:37;3.00;56.20
11229;DHT22;5671;47.936;8.716;2023-04-03T16:35:05;3.10;56.80
11229;DHT22;5671;47.936;8.716;2023-04-03T16:37:32;2.90;56.80